sensor_id;sensor_type;location;lat;lon;timestamp;temperature;humidity
29539;DHT22;16482;51.046;4.498;2022-09-29T00:01:28;23.40;39.20
29539;DHT22;16482;51.046;4.498;2022-09-29T00:03:55;23.40;39.20
29539;DHT22;16482;51.046;4.498;2022-09-29T00:06:22;23.40;39.20
29539;DHT22;16482;51.046;4.498;2022-09-29T00:09:00;23.40;39.10
29539;DHT22;16482;51.046;4.498;2022-09-29T00:11:31;23.40;39.10
29539;DHT22;16482;51.046;4.498;2022-09-29T00:13:57;23.30;39.10
29539;DHT22;16482;51.046;4.498;2022-09-29T00:16:23;23.40;39.10
29539;DHT22;16482;51.046;4.498;2022-09-29T00:18:54;23.30;39.00
29539;DHT22;16482;51.046;4.498;2022-09-29T00:21:25;23.30;38.90
29539;DHT22;16482;51.046;4.498;2022-09-29T00:23:59;23.40;39.00
29539;DHT22;16482;51.046;4.498;2022-09-29T00:26:27;23.40;39.00
29539;DHT22;16482;51.046;4.498;2022-09-29T00:29:02;23.40;38.90
29539;DHT22;16482;51.046;4.498;2022-09-29T00:31:30;23.40;38.90
29539;DHT22;16482;51.046;4.498;2022-09-29T00:33:58;23.30;38.90
29539;DHT22;16482;51.046;4.498;2022-09-29T00:36:26;23.30;38.90
29539;DHT22;16482;51.046;4.498;2022-09-29T00:38:55;23.30;38.80
29539;DHT22;16482;51.046;4.498;2022-09-29T00:41:25;23.30;38.90
29539;DHT22;16482;51.046;4.498;2022-09-29T00:43:56;23.30;38.80
29539;DHT22;16482;51.046;4.498;2022-09-29T00:46:40;23.30;38.80
29539;DHT22;16482;51.046;4.498;2022-09-29T00:52:01;23.30;38.70
29539;DHT22;16482;51.046;4.498;2022-09-29T00:54:32;23.30;38.70
29539;DHT22;16482;51.046;4.498;2022-09-29T00:57:03;23.20;38.60
29539;DHT22;16482;51.046;4.498;2022-09-29T00:59:48;23.30;38.60
29539;DHT22;16482;51.046;4.498;2022-09-29T01:02:19;23.30;38.60
29539;DHT22;16482;51.046;4.498;2022-09-29T01:04:48;23.20;38.50
29539;DHT22;16482;51.046;4.498;2022-09-29T01:07:16;23.20;38.40
29539;DHT22;16482;51.046;4.498;2022-09-29T01:09:43;23.20;38.40
29539;DHT22;16482;51.046;4.498;2022-09-29T01:12:09;23.30;38.40
29539;DHT22;16482;51.046;4.498;2022-09-29T01:14:38;23.20;38.30
29539;DHT22;16482;51.046;4.498;2022-09-29T01:17:05;23.20;38.30
29539;DHT22;16482;51.046;4.498;2022-09-29T01:20:02;23.20;38.30
29539;DHT22;16482;51.046;4.498;2022-09-29T01:36:36;23.20;38.20
29539;DHT22;16482;51.046;4.498;2022-09-29T01:41:54;23.20;38.10
29539;DHT22;16482;51.046;4.498;2022-09-29T01:47:07;23.10;38.00
29539;DHT22;16482;51.046;4.498;2022-09-29T01:49:37;23.20;38.00
29539;DHT22;16482;51.046;4.498;2022-09-29T01:52:16;23.20;37.90
29539;DHT22;16482;51.046;4.498;2022-09-29T01:54:57;23.20;38.00
29539;DHT22;16482;51.046;4.498;2022-09-29T01:57:46;23.20;37.90
29539;DHT22;16482;51.046;4.498;2022-09-29T02:00:16;23.20;37.90
29539;DHT22;16482;51.046;4.498;2022-09-29T02:05:46;23.20;37.80
29539;DHT22;16482;51.046;4.498;2022-09-29T02:08:25;23.20;37.80
29539;DHT22;16482;51.046;4.498;2022-09-29T02:11:01;23.10;37.70
29539;DHT22;16482;51.046;4.498;2022-09-29T02:13:30;23.10;37.70
29539;DHT22;16482;51.046;4.498;2022-09-29T02:15:58;23.10;37.60
29539;DHT22;16482;51.046;4.498;2022-09-29T02:18:32;23.10;37.60
29539;DHT22;16482;51.046;4.498;2022-09-29T02:21:00;23.10;37.50
29539;DHT22;16482;51.046;4.498;2022-09-29T02:23:26;23.10;37.50
29539;DHT22;16482;51.046;4.498;2022-09-29T02:25:53;23.10;37.40
29539;DHT22;16482;51.046;4.498;2022-09-29T02:28:20;23.10;37.40
29539;DHT22;16482;51.046;4.498;2022-09-29T02:30:49;23.10;37.40
29539;DHT22;16482;51.046;4.498;2022-09-29T02:33:24;23.10;37.40
29539;DHT22;16482;51.046;4.498;2022-09-29T02:35:55;23.10;37.40
29539;DHT22;16482;51.046;4.498;2022-09-29T02:41:38;23.10;37.30
29539;DHT22;16482;51.046;4.498;2022-09-29T02:55:53;23.10;37.00
29539;DHT22;16482;51.046;4.498;2022-09-29T02:59:14;23.10;37.00
29539;DHT22;16482;51.046;4.498;2022-09-29T03:01:24;23.10;37.10
29539;DHT22;16482;51.046;4.498;2022-09-29T03:03:53;23.10;37.10
29539;DHT22;16482;51.046;4.498;2022-09-29T03:06:19;23.10;37.10
29539;DHT22;16482;51.046;4.498;2022-09-29T03:09:03;23.10;37.00
29539;DHT22;16482;51.046;4.498;2022-09-29T03:11:29;23.00;36.90
29539;DHT22;16482;51.046;4.498;2022-09-29T03:13:55;23.00;36.90
29539;DHT22;16482;51.046;4.498;2022-09-29T03:16:23;23.00;36.90
29539;DHT22;16482;51.046;4.498;2022-09-29T03:18:50;23.00;36.80
29539;DHT22;16482;51.046;4.498;2022-09-29T03:21:18;23.10;36.90
29539;DHT22;16482;51.046;4.498;2022-09-29T03:23:44;23.00;36.90
29539;DHT22;16482;51.046;4.498;2022-09-29T03:26:09;23.00;36.90
29539;DHT22;16482;51.046;4.498;2022-09-29T03:28:35;23.10;36.80
29539;DHT22;16482;51.046;4.498;2022-09-29T03:31:06;23.10;36.80
29539;DHT22;16482;51.046;4.498;2022-09-29T03:33:34;23.00;36.80
29539;DHT22;16482;51.046;4.498;2022-09-29T03:36:01;23.00;37.40
29539;DHT22;16482;51.046;4.498;2022-09-29T03:38:28;23.00;36.80
29539;DHT22;16482;51.046;4.498;2022-09-29T03:40:54;23.00;36.80
29539;DHT22;16482;51.046;4.498;2022-09-29T03:43:20;23.00;36.80
29539;DHT22;16482;51.046;4.498;2022-09-29T03:45:50;23.00;36.70
29539;DHT22;16482;51.046;4.498;2022-09-29T03:48:17;23.10;36.70
29539;DHT22;16482;51.046;4.498;2022-09-29T03:50:44;23.10;36.80
29539;DHT22;16482;51.046;4.498;2022-09-29T03:53:10;23.00;36.70
29539;DHT22;16482;51.046;4.498;2022-09-29T03:55:36;23.00;36.60
29539;DHT22;16482;51.046;4.498;2022-09-29T03:58:05;23.00;36.60
29539;DHT22;16482;51.046;4.498;2022-09-29T04:00:33;23.00;36.50
29539;DHT22;16482;51.046;4.498;2022-09-29T04:02:58;23.00;36.60
29539;DHT22;16482;51.046;4.498;2022-09-29T04:05:24;23.00;36.50
29539;DHT22;16482;51.046;4.498;2022-09-29T04:07:51;23.00;36.60
29539;DHT22;16482;51.046;4.498;2022-09-29T04:10:17;23.00;36.60
29539;DHT22;16482;51.046;4.498;2022-09-29T04:12:43;23.00;36.50
29539;DHT22;16482;51.046;4.498;2022-09-29T04:15:09;23.00;36.40
29539;DHT22;16482;51.046;4.498;2022-09-29T04:17:35;23.00;36.50
29539;DHT22;16482;51.046;4.498;2022-09-29T04:20:01;23.00;36.50
29539;DHT22;16482;51.046;4.498;2022-09-29T04:22:27;23.00;36.40
29539;DHT22;16482;51.046;4.498;2022-09-29T04:24:52;23.00;36.40
29539;DHT22;16482;51.046;4.498;2022-09-29T04:27:18;23.00;36.40
29539;DHT22;16482;51.046;4.498;2022-09-29T04:29:44;23.00;36.30
29539;DHT22;16482;51.046;4.498;2022-09-29T04:32:10;23.00;36.40
29539;DHT22;16482;51.046;4.498;2022-09-29T04:34:36;23.00;36.40
29539;DHT22;16482;51.046;4.498;2022-09-29T04:37:02;23.00;36.40
29539;DHT22;16482;51.046;4.498;2022-09-29T04:39:28;23.00;36.50
29539;DHT22;16482;51.046;4.498;2022-09-29T04:41:54;23.00;36.40
29539;DHT22;16482;51.046;4.498;2022-09-29T04:44:19;23.00;36.30
29539;DHT22;16482;51.046;4.498;2022-09-29T04:46:50;23.00;36.30
29539;DHT22;16482;51.046;4.498;2022-09-29T04:49:17;22.90;36.30
29539;DHT22;16482;51.046;4.498;2022-09-29T04:51:43;23.00;36.30
29539;DHT22;16482;51.046;4.498;2022-09-29T04:54:09;23.00;36.30
29539;DHT22;16482;51.046;4.498;2022-09-29T04:56:35;23.00;36.40
29539;DHT22;16482;51.046;4.498;2022-09-29T04:59:01;22.90;36.30
29539;DHT22;16482;51.046;4.498;2022-09-29T05:01:26;22.90;36.30
29539;DHT22;16482;51.046;4.498;2022-09-29T05:03:52;22.90;36.20
29539;DHT22;16482;51.046;4.498;2022-09-29T05:06:18;22.90;36.20
29539;DHT22;16482;51.046;4.498;2022-09-29T05:08:48;22.90;36.30
29539;DHT22;16482;51.046;4.498;2022-09-29T05:11:14;22.90;36.20
29539;DHT22;16482;51.046;4.498;2022-09-29T05:13:40;23.00;36.30
29539;DHT22;16482;51.046;4.498;2022-09-29T05:16:06;23.00;36.20
29539;DHT22;16482;51.046;4.498;2022-09-29T05:18:32;22.90;36.40
29539;DHT22;16482;51.046;4.498;2022-09-29T05:21:05;22.90;36.60
29539;DHT22;16482;51.046;4.498;2022-09-29T05:23:32;23.00;37.80
29539;DHT22;16482;51.046;4.498;2022-09-29T05:26:05;23.00;37.40
29539;DHT22;16482;51.046;4.498;2022-09-29T05:28:32;23.00;37.40
29539;DHT22;16482;51.046;4.498;2022-09-29T05:31:05;23.00;37.40
29539;DHT22;16482;51.046;4.498;2022-09-29T05:33:31;23.10;37.60
29539;DHT22;16482;51.046;4.498;2022-09-29T05:35:57;23.10;37.60
29539;DHT22;16482;51.046;4.498;2022-09-29T05:38:24;23.10;37.50
29539;DHT22;16482;51.046;4.498;2022-09-29T05:40:51;23.20;37.50
29539;DHT22;16482;51.046;4.498;2022-09-29T05:43:17;23.20;37.50
29539;DHT22;16482;51.046;4.498;2022-09-29T05:45:44;23.30;37.40
29539;DHT22;16482;51.046;4.498;2022-09-29T05:48:10;23.30;37.30
29539;DHT22;16482;51.046;4.498;2022-09-29T05:50:38;23.40;37.20
29539;DHT22;16482;51.046;4.498;2022-09-29T05:53:08;23.40;37.50
29539;DHT22;16482;51.046;4.498;2022-09-29T05:55:38;23.50;37.10
29539;DHT22;16482;51.046;4.498;2022-09-29T05:58:05;23.50;37.10
29539;DHT22;16482;51.046;4.498;2022-09-29T06:00:33;23.50;37.00
29539;DHT22;16482;51.046;4.498;2022-09-29T06:03:00;23.50;36.80
29539;DHT22;16482;51.046;4.498;2022-09-29T06:05:30;23.60;36.80
29539;DHT22;16482;51.046;4.498;2022-09-29T06:08:03;23.60;36.80
29539;DHT22;16482;51.046;4.498;2022-09-29T06:10:30;23.60;36.70
29539;DHT22;16482;51.046;4.498;2022-09-29T06:13:01;23.60;36.60
29539;DHT22;16482;51.046;4.498;2022-09-29T06:15:29;23.70;36.70
29539;DHT22;16482;51.046;4.498;2022-09-29T06:17:58;23.70;36.50
29539;DHT22;16482;51.046;4.498;2022-09-29T06:20:26;23.70;36.50
29539;DHT22;16482;51.046;4.498;2022-09-29T06:22:55;23.70;36.50
29539;DHT22;16482;51.046;4.498;2022-09-29T06:25:21;23.70;36.30
29539;DHT22;16482;51.046;4.498;2022-09-29T06:27:47;23.70;36.20
29539;DHT22;16482;51.046;4.498;2022-09-29T06:30:13;23.70;36.20
29539;DHT22;16482;51.046;4.498;2022-09-29T06:32:40;23.80;36.20
29539;DHT22;16482;51.046;4.498;2022-09-29T06:35:07;23.70;36.30
29539;DHT22;16482;51.046;4.498;2022-09-29T06:37:53;23.80;36.30
29539;DHT22;16482;51.046;4.498;2022-09-29T06:40:20;23.80;36.30
29539;DHT22;16482;51.046;4.498;2022-09-29T06:42:48;23.80;36.30
29539;DHT22;16482;51.046;4.498;2022-09-29T06:45:14;23.80;36.20
29539;DHT22;16482;51.046;4.498;2022-09-29T06:47:40;23.80;36.20
29539;DHT22;16482;51.046;4.498;2022-09-29T06:50:07;23.80;36.10
29539;DHT22;16482;51.046;4.498;2022-09-29T06:52:34;23.80;36.10
29539;DHT22;16482;51.046;4.498;2022-09-29T06:55:00;23.90;36.20
29539;DHT22;16482;51.046;4.498;2022-09-29T06:57:26;23.90;36.10
29539;DHT22;16482;51.046;4.498;2022-09-29T06:59:52;23.90;36.10
29539;DHT22;16482;51.046;4.498;2022-09-29T07:02:17;23.90;35.90
29539;DHT22;16482;51.046;4.498;2022-09-29T07:04:43;24.00;35.90
29539;DHT22;16482;51.046;4.498;2022-09-29T07:07:09;24.00;35.90
29539;DHT22;16482;51.046;4.498;2022-09-29T07:09:35;24.00;35.90
29539;DHT22;16482;51.046;4.498;2022-09-29T07:12:01;24.10;35.90
29539;DHT22;16482;51.046;4.498;2022-09-29T07:14:27;24.10;35.90
29539;DHT22;16482;51.046;4.498;2022-09-29T07:16:53;24.10;35.90
29539;DHT22;16482;51.046;4.498;2022-09-29T07:19:19;24.10;35.90
29539;DHT22;16482;51.046;4.498;2022-09-29T07:21:47;24.10;35.90
29539;DHT22;16482;51.046;4.498;2022-09-29T07:24:13;24.20;35.90
29539;DHT22;16482;51.046;4.498;2022-09-29T07:26:39;24.10;35.90
29539;DHT22;16482;51.046;4.498;2022-09-29T07:29:06;24.20;35.90
29539;DHT22;16482;51.046;4.498;2022-09-29T07:31:31;24.20;35.90
29539;DHT22;16482;51.046;4.498;2022-09-29T07:33:57;24.20;35.90
29539;DHT22;16482;51.046;4.498;2022-09-29T07:36:24;24.30;35.90
29539;DHT22;16482;51.046;4.498;2022-09-29T07:38:50;24.30;36.00
29539;DHT22;16482;51.046;4.498;2022-09-29T07:41:20;24.30;36.00
29539;DHT22;16482;51.046;4.498;2022-09-29T07:43:49;24.30;36.00
29539;DHT22;16482;51.046;4.498;2022-09-29T07:46:15;24.30;36.00
29539;DHT22;16482;51.046;4.498;2022-09-29T07:48:41;24.30;36.00
29539;DHT22;16482;51.046;4.498;2022-09-29T07:51:15;24.30;36.10
29539;DHT22;16482;51.046;4.498;2022-09-29T07:53:41;24.30;36.10
29539;DHT22;16482;51.046;4.498;2022-09-29T07:56:19;24.30;36.20
29539;DHT22;16482;51.046;4.498;2022-09-29T07:58:46;24.30;36.30
29539;DHT22;16482;51.046;4.498;2022-09-29T08:01:16;24.30;36.30
29539;DHT22;16482;51.046;4.498;2022-09-29T08:03:48;24.30;36.40
29539;DHT22;16482;51.046;4.498;2022-09-29T08:06:14;24.30;36.50
29539;DHT22;16482;51.046;4.498;2022-09-29T08:08:40;24.30;36.60
29539;DHT22;16482;51.046;4.498;2022-09-29T08:11:11;24.30;36.80
29539;DHT22;16482;51.046;4.498;2022-09-29T08:13:38;24.30;36.80
29539;DHT22;16482;51.046;4.498;2022-09-29T08:16:07;24.30;36.90
29539;DHT22;16482;51.046;4.498;2022-09-29T08:18:34;24.30;37.10
29539;DHT22;16482;51.046;4.498;2022-09-29T08:21:01;24.30;37.10
29539;DHT22;16482;51.046;4.498;2022-09-29T08:23:27;24.30;37.20
29539;DHT22;16482;51.046;4.498;2022-09-29T08:26:08;24.30;37.30
29539;DHT22;16482;51.046;4.498;2022-09-29T08:28:37;24.30;37.50
29539;DHT22;16482;51.046;4.498;2022-09-29T08:31:10;24.30;37.50
29539;DHT22;16482;51.046;4.498;2022-09-29T08:33:36;24.30;37.60
29539;DHT22;16482;51.046;4.498;2022-09-29T08:36:04;24.30;37.70
29539;DHT22;16482;51.046;4.498;2022-09-29T08:38:42;24.30;37.70
29539;DHT22;16482;51.046;4.498;2022-09-29T08:41:33;24.30;37.70
29539;DHT22;16482;51.046;4.498;2022-09-29T08:44:16;24.30;37.80
29539;DHT22;16482;51.046;4.498;2022-09-29T08:46:53;24.30;37.90
29539;DHT22;16482;51.046;4.498;2022-09-29T08:49:36;24.30;38.10
29539;DHT22;16482;51.046;4.498;2022-09-29T08:52:31;24.20;38.30
29539;DHT22;16482;51.046;4.498;2022-09-29T08:55:25;24.20;38.30
29539;DHT22;16482;51.046;4.498;2022-09-29T08:57:57;24.20;38.30
29539;DHT22;16482;51.046;4.498;2022-09-29T09:00:34;24.20;38.40
29539;DHT22;16482;51.046;4.498;2022-09-29T09:05:57;24.20;38.50
29539;DHT22;16482;51.046;4.498;2022-09-29T09:26:07;24.10;39.10
29539;DHT22;16482;51.046;4.498;2022-09-29T09:29:02;24.10;39.20
29539;DHT22;16482;51.046;4.498;2022-09-29T09:31:39;24.10;39.20
29539;DHT22;16482;51.046;4.498;2022-09-29T09:34:25;24.10;39.30
29539;DHT22;16482;51.046;4.498;2022-09-29T09:37:34;24.10;39.40
29539;DHT22;16482;51.046;4.498;2022-09-29T09:40:27;24.00;39.40
29539;DHT22;16482;51.046;4.498;2022-09-29T09:42:59;24.00;39.50
29539;DHT22;16482;51.046;4.498;2022-09-29T09:48:44;24.00;39.60
29539;DHT22;16482;51.046;4.498;2022-09-29T09:51:44;24.00;39.70
29539;DHT22;16482;51.046;4.498;2022-09-29T09:57:12;24.00;39.90
29539;DHT22;16482;51.046;4.498;2022-09-29T10:02:25;24.00;40.00
29539;DHT22;16482;51.046;4.498;2022-09-29T10:04:51;24.00;40.00
29539;DHT22;16482;51.046;4.498;2022-09-29T10:07:26;23.90;40.00
29539;DHT22;16482;51.046;4.498;2022-09-29T10:09:52;23.90;40.00
29539;DHT22;16482;51.046;4.498;2022-09-29T10:12:20;23.90;40.10
29539;DHT22;16482;51.046;4.498;2022-09-29T10:14:52;23.90;40.00
29539;DHT22;16482;51.046;4.498;2022-09-29T10:17:22;24.00;39.80
29539;DHT22;16482;51.046;4.498;2022-09-29T10:19:56;24.10;39.80
29539;DHT22;16482;51.046;4.498;2022-09-29T10:22:24;24.20;39.50
29539;DHT22;16482;51.046;4.498;2022-09-29T10:27:41;24.40;39.10
29539;DHT22;16482;51.046;4.498;2022-09-29T10:30:18;24.40;39.00
29539;DHT22;16482;51.046;4.498;2022-09-29T10:32:45;24.50;38.90
29539;DHT22;16482;51.046;4.498;2022-09-29T10:35:27;24.60;38.90
29539;DHT22;16482;51.046;4.498;2022-09-29T10:38:07;24.60;38.60
29539;DHT22;16482;51.046;4.498;2022-09-29T10:41:04;24.70;38.50
29539;DHT22;16482;51.046;4.498;2022-09-29T10:43:35;24.80;38.30
29539;DHT22;16482;51.046;4.498;2022-09-29T10:46:01;24.70;38.40
29539;DHT22;16482;51.046;4.498;2022-09-29T10:48:27;24.60;38.50
29539;DHT22;16482;51.046;4.498;2022-09-29T10:50:59;24.60;38.70
29539;DHT22;16482;51.046;4.498;2022-09-29T10:53:36;24.60;38.60
29539;DHT22;16482;51.046;4.498;2022-09-29T10:56:16;24.70;38.60
29539;DHT22;16482;51.046;4.498;2022-09-29T10:58:45;24.80;38.50
29539;DHT22;16482;51.046;4.498;2022-09-29T11:01:20;24.70;38.50
29539;DHT22;16482;51.046;4.498;2022-09-29T11:03:50;24.70;38.70
29539;DHT22;16482;51.046;4.498;2022-09-29T11:09:03;24.80;38.60
29539;DHT22;16482;51.046;4.498;2022-09-29T11:11:52;24.70;38.70
29539;DHT22;16482;51.046;4.498;2022-09-29T11:14:28;24.60;38.90
29539;DHT22;16482;51.046;4.498;2022-09-29T11:16:57;24.60;38.90
29539;DHT22;16482;51.046;4.498;2022-09-29T11:19:23;24.60;38.80
29539;DHT22;16482;51.046;4.498;2022-09-29T11:24:46;24.70;38.40
29539;DHT22;16482;51.046;4.498;2022-09-29T11:27:43;24.80;38.60
29539;DHT22;16482;51.046;4.498;2022-09-29T11:30:15;24.80;39.00
29539;DHT22;16482;51.046;4.498;2022-09-29T11:36:07;24.70;38.90
29539;DHT22;16482;51.046;4.498;2022-09-29T11:38:58;24.70;38.90
29539;DHT22;16482;51.046;4.498;2022-09-29T11:41:44;24.60;39.00
29539;DHT22;16482;51.046;4.498;2022-09-29T11:47:20;24.60;39.70
29539;DHT22;16482;51.046;4.498;2022-09-29T11:50:08;24.60;39.40
29539;DHT22;16482;51.046;4.498;2022-09-29T11:53:00;24.60;39.80
29539;DHT22;16482;51.046;4.498;2022-09-29T11:58:34;24.70;39.70
29539;DHT22;16482;51.046;4.498;2022-09-29T12:06:53;24.80;39.50
29539;DHT22;16482;51.046;4.498;2022-09-29T12:15:16;24.80;39.50
29539;DHT22;16482;51.046;4.498;2022-09-29T12:17:53;24.70;39.60
29539;DHT22;16482;51.046;4.498;2022-09-29T12:20:42;24.60;39.80
29539;DHT22;16482;51.046;4.498;2022-09-29T12:23:09;24.60;39.90
29539;DHT22;16482;51.046;4.498;2022-09-29T12:25:39;24.50;39.90
29539;DHT22;16482;51.046;4.498;2022-09-29T12:28:16;24.40;40.00
29539;DHT22;16482;51.046;4.498;2022-09-29T12:30:47;24.40;39.90
29539;DHT22;16482;51.046;4.498;2022-09-29T12:48:31;24.30;40.10
29539;DHT22;16482;51.046;4.498;2022-09-29T12:53:34;24.30;40.20
29539;DHT22;16482;51.046;4.498;2022-09-29T12:56:35;24.30;40.10
29539;DHT22;16482;51.046;4.498;2022-09-29T12:59:20;24.30;40.10
29539;DHT22;16482;51.046;4.498;2022-09-29T13:01:52;24.30;40.30
29539;DHT22;16482;51.046;4.498;2022-09-29T13:04:46;24.30;40.10
29539;DHT22;16482;51.046;4.498;2022-09-29T13:07:38;24.30;40.20
29539;DHT22;16482;51.046;4.498;2022-09-29T13:10:35;24.30;40.00
29539;DHT22;16482;51.046;4.498;2022-09-29T13:15:41;24.20;40.10
29539;DHT22;16482;51.046;4.498;2022-09-29T13:28:42;24.20;40.00
29539;DHT22;16482;51.046;4.498;2022-09-29T13:31:14;24.20;39.80
29539;DHT22;16482;51.046;4.498;2022-09-29T13:33:50;24.30;40.00
29539;DHT22;16482;51.046;4.498;2022-09-29T13:36:38;24.20;39.90
29539;DHT22;16482;51.046;4.498;2022-09-29T13:39:21;24.30;39.90
29539;DHT22;16482;51.046;4.498;2022-09-29T13:41:47;24.30;39.90
29539;DHT22;16482;51.046;4.498;2022-09-29T13:46:42;24.30;39.80
29539;DHT22;16482;51.046;4.498;2022-09-29T13:51:44;24.20;39.70
29539;DHT22;16482;51.046;4.498;2022-09-29T13:59:38;24.20;39.70
29539;DHT22;16482;51.046;4.498;2022-09-29T14:02:38;24.20;39.70
29539;DHT22;16482;51.046;4.498;2022-09-29T14:10:43;24.20;39.60
29539;DHT22;16482;51.046;4.498;2022-09-29T14:18:57;24.20;39.60
29539;DHT22;16482;51.046;4.498;2022-09-29T14:21:52;24.10;39.50
29539;DHT22;16482;51.046;4.498;2022-09-29T14:35:53;24.10;39.40
29539;DHT22;16482;51.046;4.498;2022-09-29T14:43:20;24.20;39.20
29539;DHT22;16482;51.046;4.498;2022-09-29T15:03:16;24.10;39.10
29539;DHT22;16482;51.046;4.498;2022-09-29T15:05:44;24.10;39.10
29539;DHT22;16482;51.046;4.498;2022-09-29T15:08:26;24.10;39.20
29539;DHT22;16482;51.046;4.498;2022-09-29T15:10:53;24.10;39.10
29539;DHT22;16482;51.046;4.498;2022-09-29T15:13:28;24.10;39.20
29539;DHT22;16482;51.046;4.498;2022-09-29T15:16:20;24.10;39.30
29539;DHT22;16482;51.046;4.498;2022-09-29T15:26:40;24.10;39.40
29539;DHT22;16482;51.046;4.498;2022-09-29T15:29:06;24.00;39.40
29539;DHT22;16482;51.046;4.498;2022-09-29T15:31:33;24.00;39.50
29539;DHT22;16482;51.046;4.498;2022-09-29T15:34:01;24.00;39.50
29539;DHT22;16482;51.046;4.498;2022-09-29T15:36:36;24.00;39.60
29539;DHT22;16482;51.046;4.498;2022-09-29T15:39:06;24.00;39.70
29539;DHT22;16482;51.046;4.498;2022-09-29T15:41:37;24.10;39.70
29539;DHT22;16482;51.046;4.498;2022-09-29T15:44:12;24.10;39.70
29539;DHT22;16482;51.046;4.498;2022-09-29T15:46:55;24.10;39.70
29539;DHT22;16482;51.046;4.498;2022-09-29T15:49:30;24.10;39.70
29539;DHT22;16482;51.046;4.498;2022-09-29T15:52:05;24.10;39.70
29539;DHT22;16482;51.046;4.498;2022-09-29T15:54:37;24.10;39.70
29539;DHT22;16482;51.046;4.498;2022-09-29T15:57:05;24.10;39.80
29539;DHT22;16482;51.046;4.498;2022-09-29T15:59:51;24.10;39.70
29539;DHT22;16482;51.046;4.498;2022-09-29T16:02:35;24.10;39.70
29539;DHT22;16482;51.046;4.498;2022-09-29T16:05:05;24.10;39.80
29539;DHT22;16482;51.046;4.498;2022-09-29T16:07:37;24.10;39.90
29539;DHT22;16482;51.046;4.498;2022-09-29T16:10:13;24.10;39.90
29539;DHT22;16482;51.046;4.498;2022-09-29T16:12:51;24.10;39.90
29539;DHT22;16482;51.046;4.498;2022-09-29T16:15:41;24.10;39.90
29539;DHT22;16482;51.046;4.498;2022-09-29T16:20:42;24.20;40.10
29539;DHT22;16482;51.046;4.498;2022-09-29T16:31:52;24.10;40.20
29539;DHT22;16482;51.046;4.498;2022-09-29T16:34:23;24.10;40.30
29539;DHT22;16482;51.046;4.498;2022-09-29T16:39:19;24.10;40.40
29539;DHT22;16482;51.046;4.498;2022-09-29T16:41:50;24.10;40.40
29539;DHT22;16482;51.046;4.498;2022-09-29T16:44:32;24.10;40.40
29539;DHT22;16482;51.046;4.498;2022-09-29T16:47:14;24.10;40.50
29539;DHT22;16482;51.046;4.498;2022-09-29T16:49:47;24.10;40.60
29539;DHT22;16482;51.046;4.498;2022-09-29T16:52:24;24.00;40.50
29539;DHT22;16482;51.046;4.498;2022-09-29T16:54:53;24.00;40.50
29539;DHT22;16482;51.046;4.498;2022-09-29T16:57:27;24.00;40.50
29539;DHT22;16482;51.046;4.498;2022-09-29T17:00:06;24.00;40.50
29539;DHT22;16482;51.046;4.498;2022-09-29T17:02:35;24.00;40.50
29539;DHT22;16482;51.046;4.498;2022-09-29T17:05:01;24.00;40.60
29539;DHT22;16482;51.046;4.498;2022-09-29T17:07:30;24.00;40.60
29539;DHT22;16482;51.046;4.498;2022-09-29T17:09:58;24.00;40.60
29539;DHT22;16482;51.046;4.498;2022-09-29T17:12:27;24.00;40.60
29539;DHT22;16482;51.046;4.498;2022-09-29T17:14:53;24.00;40.60
29539;DHT22;16482;51.046;4.498;2022-09-29T17:17:22;24.00;40.70
29539;DHT22;16482;51.046;4.498;2022-09-29T17:19:52;24.00;40.60
29539;DHT22;16482;51.046;4.498;2022-09-29T17:22:29;24.00;40.60
29539;DHT22;16482;51.046;4.498;2022-09-29T17:24:57;24.00;40.70
29539;DHT22;16482;51.046;4.498;2022-09-29T17:27:23;24.00;40.70
29539;DHT22;16482;51.046;4.498;2022-09-29T17:30:09;24.10;40.70
29539;DHT22;16482;51.046;4.498;2022-09-29T17:32:35;24.10;40.70
29539;DHT22;16482;51.046;4.498;2022-09-29T17:35:02;24.00;40.80
29539;DHT22;16482;51.046;4.498;2022-09-29T17:37:28;24.00;40.80
29539;DHT22;16482;51.046;4.498;2022-09-29T17:39:54;24.00;40.80
29539;DHT22;16482;51.046;4.498;2022-09-29T17:42:23;24.00;40.80
29539;DHT22;16482;51.046;4.498;2022-09-29T17:44:51;24.00;40.80
29539;DHT22;16482;51.046;4.498;2022-09-29T17:47:17;24.00;40.80
29539;DHT22;16482;51.046;4.498;2022-09-29T17:49:47;24.00;40.80
29539;DHT22;16482;51.046;4.498;2022-09-29T17:52:16;24.00;40.90
29539;DHT22;16482;51.046;4.498;2022-09-29T17:54:44;24.00;40.80
29539;DHT22;16482;51.046;4.498;2022-09-29T17:57:20;24.00;40.80
29539;DHT22;16482;51.046;4.498;2022-09-29T17:59:49;24.00;40.80
29539;DHT22;16482;51.046;4.498;2022-09-29T18:02:15;24.00;40.80
29539;DHT22;16482;51.046;4.498;2022-09-29T18:04:41;24.00;40.80
29539;DHT22;16482;51.046;4.498;2022-09-29T18:07:10;24.00;40.80
29539;DHT22;16482;51.046;4.498;2022-09-29T18:09:38;24.00;40.80
29539;DHT22;16482;51.046;4.498;2022-09-29T18:12:04;24.00;40.70
29539;DHT22;16482;51.046;4.498;2022-09-29T18:14:32;24.00;40.80
29539;DHT22;16482;51.046;4.498;2022-09-29T18:17:02;24.00;40.70
29539;DHT22;16482;51.046;4.498;2022-09-29T18:19:31;24.00;40.80
29539;DHT22;16482;51.046;4.498;2022-09-29T18:21:59;24.00;40.70
29539;DHT22;16482;51.046;4.498;2022-09-29T18:24:27;24.00;40.70
29539;DHT22;16482;51.046;4.498;2022-09-29T18:26:53;24.00;40.70
29539;DHT22;16482;51.046;4.498;2022-09-29T18:29:19;24.00;40.70
29539;DHT22;16482;51.046;4.498;2022-09-29T18:31:45;24.00;40.70
29539;DHT22;16482;51.046;4.498;2022-09-29T18:34:14;24.00;40.70
29539;DHT22;16482;51.046;4.498;2022-09-29T18:36:41;24.00;40.70
29539;DHT22;16482;51.046;4.498;2022-09-29T18:39:06;24.00;40.60
29539;DHT22;16482;51.046;4.498;2022-09-29T18:41:32;24.00;40.60
29539;DHT22;16482;51.046;4.498;2022-09-29T18:43:59;24.00;40.70
29539;DHT22;16482;51.046;4.498;2022-09-29T18:46:28;24.00;40.70
29539;DHT22;16482;51.046;4.498;2022-09-29T18:48:56;24.00;40.70
29539;DHT22;16482;51.046;4.498;2022-09-29T18:51:22;24.00;40.60
29539;DHT22;16482;51.046;4.498;2022-09-29T18:53:48;24.00;40.60
29539;DHT22;16482;51.046;4.498;2022-09-29T18:56:15;24.00;40.60
29539;DHT22;16482;51.046;4.498;2022-09-29T18:58:42;24.00;40.60
29539;DHT22;16482;51.046;4.498;2022-09-29T19:01:12;24.00;40.60
29539;DHT22;16482;51.046;4.498;2022-09-29T19:03:39;24.00;40.60
29539;DHT22;16482;51.046;4.498;2022-09-29T19:06:07;24.00;40.60
29539;DHT22;16482;51.046;4.498;2022-09-29T19:08:33;24.00;40.60
29539;DHT22;16482;51.046;4.498;2022-09-29T19:10:59;24.00;40.60
29539;DHT22;16482;51.046;4.498;2022-09-29T19:13:26;24.00;40.60
29539;DHT22;16482;51.046;4.498;2022-09-29T19:15:56;24.00;40.60
29539;DHT22;16482;51.046;4.498;2022-09-29T19:18:27;24.00;40.60
29539;DHT22;16482;51.046;4.498;2022-09-29T19:20:55;24.00;40.60
29539;DHT22;16482;51.046;4.498;2022-09-29T19:23:24;24.00;40.50